createdAt,value
2019-01-29T00:01:02.518Z,39.47
2019-01-29T00:04:06.823Z,36.53
2019-01-29T00:07:11.066Z,36.37
2019-01-29T00:10:15.564Z,34.33
2019-01-29T00:13:19.664Z,38.17
2019-01-29T00:16:23.808Z,35.50
2019-01-29T00:19:28.000Z,38.10
2019-01-29T00:22:33.555Z,38.70
2019-01-29T00:25:37.899Z,79.63
2019-01-29T00:28:42.096Z,53.60
2019-01-29T00:31:46.264Z,55.50
2019-01-29T00:34:50.386Z,59.43
2019-01-29T00:37:54.472Z,72.80
2019-01-29T00:40:58.593Z,65.00
2019-01-29T00:44:02.731Z,56.63
2019-01-29T00:47:07.089Z,47.17
2019-01-29T00:50:12.120Z,45.73
2019-01-29T00:53:16.254Z,46.87
2019-01-29T00:56:20.339Z,52.03
2019-01-29T00:59:24.464Z,49.97
2019-01-29T01:02:28.577Z,52.53
2019-01-29T01:05:32.744Z,51.47
2019-01-29T01:08:38.430Z,51.10
2019-01-29T01:11:42.744Z,51.77
2019-01-29T01:14:46.887Z,60.37
2019-01-29T01:17:51.011Z,56.73
2019-01-29T01:20:55.177Z,58.43
2019-01-29T01:23:59.316Z,58.83
2019-01-29T01:27:03.404Z,55.73
2019-01-29T01:30:09.699Z,61.50
2019-01-29T01:33:13.855Z,61.40
2019-01-29T01:36:18.067Z,63.87
2019-01-29T01:39:22.175Z,57.10
2019-01-29T01:42:26.293Z,53.93
2019-01-29T01:45:30.640Z,62.13
2019-01-29T01:48:34.864Z,65.20
2019-01-29T01:51:38.957Z,56.70
2019-01-29T01:54:43.078Z,55.33
2019-01-29T01:57:47.169Z,67.53
2019-01-29T02:00:51.356Z,60.07
2019-01-29T02:03:55.467Z,56.93
2019-01-29T02:06:59.650Z,59.17
2019-01-29T02:10:03.779Z,60.87
2019-01-29T02:13:07.916Z,60.43
2019-01-29T02:16:12.045Z,62.97
2019-01-29T02:19:16.265Z,61.83
2019-01-29T02:22:20.435Z,57.33
2019-01-29T02:25:24.563Z,59.07
2019-01-29T02:28:28.764Z,55.63
2019-01-29T02:31:32.952Z,51.50
2019-01-29T02:34:37.066Z,60.27
2019-01-29T02:37:41.268Z,64.17
2019-01-29T02:40:45.366Z,52.50
2019-01-29T02:43:49.553Z,50.97
2019-01-29T02:46:53.653Z,44.87
2019-01-29T02:49:57.793Z,44.73
2019-01-29T02:53:01.960Z,45.77
2019-01-29T02:56:06.089Z,45.07
2019-01-29T02:59:10.276Z,47.10
2019-01-29T03:02:14.462Z,56.13
2019-01-29T03:05:18.760Z,56.77
2019-01-29T03:08:22.976Z,53.90
2019-01-29T03:11:27.140Z,49.17
2019-01-29T03:14:31.349Z,45.47
2019-01-29T03:17:35.510Z,51.07
2019-01-29T03:20:39.649Z,49.47
2019-01-29T03:23:43.801Z,44.47
2019-01-29T03:26:48.008Z,47.17
2019-01-29T03:29:52.102Z,44.00
2019-01-29T03:32:56.239Z,41.37
2019-01-29T03:36:00.383Z,41.23
2019-01-29T03:39:06.889Z,49.17
2019-01-29T03:42:11.064Z,46.30
2019-01-29T03:45:16.471Z,40.20
2019-01-29T03:48:20.692Z,40.33
2019-01-29T03:51:24.902Z,43.47
2019-01-29T03:54:29.059Z,43.40
2019-01-29T03:57:33.191Z,44.33
2019-01-29T04:00:37.351Z,42.47
2019-01-29T04:03:41.591Z,44.13
2019-01-29T04:06:45.687Z,44.07
2019-01-29T04:09:49.902Z,46.50
2019-01-29T04:12:54.072Z,47.10
2019-01-29T04:15:58.271Z,52.17
2019-01-29T04:19:02.357Z,51.03
2019-01-29T04:22:06.553Z,50.20
2019-01-29T04:25:10.653Z,48.77
2019-01-29T04:28:14.773Z,47.67
2019-01-29T04:31:18.871Z,48.57
2019-01-29T04:34:23.072Z,49.07
2019-01-29T04:37:27.170Z,49.00
2019-01-29T04:40:31.386Z,53.30
2019-01-29T04:43:35.537Z,57.63
2019-01-29T04:46:39.771Z,51.00
2019-01-29T04:49:43.852Z,53.80
2019-01-29T04:52:47.976Z,55.93
2019-01-29T04:55:51.989Z,54.57
2019-01-29T04:58:56.111Z,54.13
2019-01-29T05:02:00.276Z,55.63
2019-01-29T05:05:05.020Z,53.67
2019-01-29T05:08:09.112Z,56.87
2019-01-29T05:11:13.232Z,57.00
2019-01-29T05:14:17.246Z,64.30
2019-01-29T05:17:21.444Z,58.17
2019-01-29T05:20:25.655Z,58.13
2019-01-29T05:23:29.805Z,58.30
2019-01-29T05:26:33.975Z,62.83
2019-01-29T05:29:38.176Z,63.43
2019-01-29T05:32:42.338Z,62.63
2019-01-29T05:35:46.534Z,79.77
2019-01-29T05:38:50.691Z,71.23
2019-01-29T05:41:54.821Z,61.00
2019-01-29T05:44:58.929Z,56.77
2019-01-29T05:48:03.660Z,61.07
2019-01-29T05:51:07.877Z,51.70
2019-01-29T05:54:16.356Z,49.47
2019-01-29T05:57:18.094Z,49.40
2019-01-29T06:00:26.500Z,50.77
2019-01-29T06:03:30.670Z,48.97
2019-01-29T06:06:34.716Z,48.00
2019-01-29T06:09:38.879Z,48.73
2019-01-29T06:12:43.036Z,47.43
2019-01-29T06:15:59.342Z,48.00
2019-01-29T06:19:03.596Z,47.23
2019-01-29T06:22:07.705Z,46.63
2019-01-29T06:25:11.839Z,47.93
2019-01-29T06:28:16.006Z,48.80
2019-01-29T06:31:20.127Z,46.67
2019-01-29T06:34:24.304Z,45.67
2019-01-29T06:37:28.426Z,45.70
2019-01-29T06:40:32.599Z,43.70
2019-01-29T06:43:36.724Z,44.50
2019-01-29T06:46:40.899Z,46.50
2019-01-29T06:49:45.353Z,46.73
2019-01-29T06:52:49.527Z,45.30
2019-01-29T06:55:53.655Z,46.77
2019-01-29T06:58:57.797Z,46.57
2019-01-29T07:02:01.915Z,47.07
2019-01-29T07:05:08.569Z,50.10
2019-01-29T07:08:12.742Z,49.57
2019-01-29T07:11:16.925Z,49.07
2019-01-29T07:14:21.075Z,51.83
2019-01-29T07:17:33.450Z,53.37
2019-01-29T07:20:37.712Z,52.67
2019-01-29T07:23:41.811Z,59.13
2019-01-29T07:26:46.061Z,62.67
2019-01-29T07:29:50.246Z,66.73
2019-01-29T07:32:54.452Z,65.37
2019-01-29T07:35:58.564Z,69.57
2019-01-29T07:39:04.865Z,73.43
2019-01-29T07:42:09.107Z,72.53
2019-01-29T07:45:13.476Z,74.90
2019-01-29T07:48:17.827Z,75.57
2019-01-29T07:51:22.244Z,76.30
2019-01-29T07:54:33.193Z,78.23
2019-01-29T07:57:32.201Z,78.20
2019-01-29T08:00:36.354Z,76.00
2019-01-29T08:03:40.488Z,74.60
2019-01-29T08:06:44.672Z,74.13
2019-01-29T08:09:49.025Z,72.60
2019-01-29T08:12:53.276Z,71.00
2019-01-29T08:15:57.416Z,70.87
2019-01-29T08:19:01.514Z,70.10
2019-01-29T08:22:05.648Z,69.47
2019-01-29T08:25:09.796Z,67.03
2019-01-29T08:28:13.957Z,69.47
2019-01-29T08:31:18.063Z,68.03
2019-01-29T08:34:22.264Z,66.57
2019-01-29T08:37:29.608Z,67.90
2019-01-29T08:40:33.804Z,66.10
2019-01-29T08:43:37.891Z,64.07
2019-01-29T08:46:42.061Z,64.83
2019-01-29T08:49:46.174Z,64.00
2019-01-29T08:52:50.539Z,67.63
2019-01-29T08:55:54.716Z,64.77
2019-01-29T08:58:58.835Z,62.60
2019-01-29T09:02:02.927Z,63.10
2019-01-29T09:05:08.179Z,62.40
2019-01-29T09:08:13.189Z,62.10
2019-01-29T09:11:17.595Z,64.63
2019-01-29T09:14:21.683Z,60.93
2019-01-29T09:17:25.818Z,61.63
2019-01-29T09:20:29.988Z,61.93
2019-01-29T09:23:34.100Z,62.27
2019-01-29T09:26:38.212Z,62.60
2019-01-29T09:29:42.333Z,62.60
2019-01-29T09:32:46.434Z,63.13
2019-01-29T09:35:50.625Z,60.97
2019-01-29T09:38:54.716Z,61.03
2019-01-29T09:41:58.903Z,58.70
2019-01-29T09:45:03.062Z,57.13
2019-01-29T09:48:07.200Z,57.00
2019-01-29T09:51:11.372Z,52.90
2019-01-29T09:54:15.496Z,57.40
2019-01-29T09:57:19.716Z,54.53
2019-01-29T10:00:29.090Z,51.87
2019-01-29T10:03:54.287Z,45.93
2019-01-29T10:06:58.505Z,37.27
2019-01-29T10:10:02.651Z,34.67
2019-01-29T10:13:06.788Z,28.27
2019-01-29T10:16:11.066Z,26.83
2019-01-29T10:19:15.265Z,22.57
2019-01-29T10:22:19.430Z,20.57
2019-01-29T10:25:23.639Z,16.70
2019-01-29T10:28:27.804Z,20.43
2019-01-29T10:31:32.012Z,16.27
2019-01-29T10:34:36.176Z,17.13
2019-01-29T10:37:40.289Z,16.63
2019-01-29T10:40:44.384Z,16.17
2019-01-29T10:43:48.575Z,16.97
2019-01-29T10:46:52.668Z,15.97
2019-01-29T10:49:56.795Z,15.43
2019-01-29T10:53:00.881Z,15.40
2019-01-29T10:56:05.244Z,15.63
2019-01-29T10:59:09.448Z,15.97
2019-01-29T11:02:13.748Z,14.90
2019-01-29T11:05:18.928Z,16.50
2019-01-29T11:08:23.116Z,16.60
2019-01-29T11:11:27.151Z,16.57
2019-01-29T11:14:31.393Z,18.07
2019-01-29T11:17:35.552Z,17.40
2019-01-29T11:20:39.695Z,16.40
2019-01-29T11:23:43.869Z,16.57
2019-01-29T11:26:48.071Z,17.67
2019-01-29T11:29:52.368Z,18.47
2019-01-29T11:32:56.573Z,18.27
2019-01-29T11:36:00.659Z,18.30
2019-01-29T11:39:08.334Z,18.30
2019-01-29T11:42:12.489Z,17.67
2019-01-29T11:45:22.827Z,17.77
2019-01-29T11:48:26.929Z,18.60
2019-01-29T11:51:31.139Z,19.10
2019-01-29T11:54:35.333Z,20.00
2019-01-29T11:57:39.453Z,18.97
2019-01-29T12:01:11.511Z,19.67
2019-01-29T12:04:15.636Z,19.50
2019-01-29T12:07:19.728Z,19.07
2019-01-29T12:10:23.857Z,20.57
2019-01-29T12:13:27.942Z,20.30
2019-01-29T12:16:32.108Z,21.13
2019-01-29T12:19:36.203Z,21.53
2019-01-29T12:22:40.384Z,20.83
2019-01-29T12:25:44.500Z,21.23
2019-01-29T12:28:49.080Z,22.47
2019-01-29T12:31:53.247Z,22.17
2019-01-29T12:34:57.376Z,22.93
2019-01-29T12:38:01.498Z,21.87
2019-01-29T12:41:05.740Z,22.93
2019-01-29T12:44:09.936Z,24.10
2019-01-29T12:47:14.184Z,23.90
2019-01-29T12:50:20.296Z,25.43
2019-01-29T12:53:28.508Z,24.27
2019-01-29T12:56:32.677Z,25.40
2019-01-29T12:59:36.799Z,25.03
2019-01-29T13:02:40.901Z,28.07
2019-01-29T13:05:45.055Z,26.87
2019-01-29T13:08:49.272Z,26.50
2019-01-29T13:11:53.509Z,26.63
2019-01-29T13:14:57.715Z,26.73
2019-01-29T13:18:01.968Z,25.57
2019-01-29T13:21:06.126Z,26.10
2019-01-29T13:24:10.333Z,26.17
2019-01-29T13:27:14.798Z,28.00
2019-01-29T13:30:24.783Z,27.67
2019-01-29T13:33:28.951Z,27.73
2019-01-29T13:36:33.163Z,28.07
2019-01-29T13:39:37.340Z,26.83
2019-01-29T13:42:41.548Z,25.53
2019-01-29T13:45:47.300Z,25.50
2019-01-29T13:48:51.777Z,24.33
2019-01-29T13:51:56.005Z,24.37
2019-01-29T13:55:00.240Z,22.33
2019-01-29T13:58:04.519Z,22.70
2019-01-29T14:01:08.704Z,22.63
2019-01-29T14:04:12.837Z,22.80
2019-01-29T14:07:17.031Z,22.07
2019-01-29T14:10:21.215Z,23.30
2019-01-29T14:13:25.499Z,22.17
2019-01-29T14:16:31.611Z,21.43
2019-01-29T14:19:35.470Z,22.07
2019-01-29T14:22:39.579Z,22.23
2019-01-29T14:25:43.700Z,22.53
2019-01-29T14:28:47.924Z,24.23
2019-01-29T14:31:52.120Z,21.40
2019-01-29T14:34:56.292Z,24.07
2019-01-29T14:38:45.226Z,23.47
2019-01-29T14:41:49.485Z,24.40
2019-01-29T14:44:55.108Z,22.53
2019-01-29T14:47:59.323Z,22.93
2019-01-29T14:51:03.579Z,23.23
2019-01-29T14:54:07.729Z,22.57
2019-01-29T14:57:11.950Z,23.23
2019-01-29T15:00:22.609Z,23.17
2019-01-29T15:03:26.844Z,23.13
2019-01-29T15:06:32.675Z,24.13
2019-01-29T15:09:37.013Z,23.43
2019-01-29T15:12:41.176Z,24.20
2019-01-29T15:15:52.168Z,21.73
2019-01-29T15:19:01.475Z,22.30
2019-01-29T15:22:07.505Z,22.10
2019-01-29T15:25:12.031Z,23.27
2019-01-29T15:28:16.305Z,23.97
2019-01-29T15:31:20.523Z,22.90
2019-01-29T15:34:24.754Z,23.50
2019-01-29T15:37:28.991Z,23.57
2019-01-29T15:40:33.183Z,24.40
2019-01-29T15:43:37.275Z,25.83
2019-01-29T15:46:41.420Z,25.33
2019-01-29T15:49:45.830Z,26.37
2019-01-29T15:52:50.097Z,27.60
2019-01-29T15:55:54.229Z,27.17
2019-01-29T15:58:58.416Z,29.50
2019-01-29T16:02:02.559Z,27.70
2019-01-29T16:05:08.829Z,27.87
2019-01-29T16:08:13.152Z,26.40
2019-01-29T16:11:18.767Z,28.70
2019-01-29T16:14:24.601Z,27.63
2019-01-29T16:17:28.761Z,28.33
2019-01-29T16:20:32.939Z,27.63
2019-01-29T16:23:37.157Z,28.13
2019-01-29T16:26:41.397Z,27.33
2019-01-29T16:29:45.648Z,28.93
2019-01-29T16:32:49.824Z,27.83
2019-01-29T16:35:54.380Z,28.80
2019-01-29T16:38:58.558Z,28.20
2019-01-29T16:42:02.861Z,29.07
2019-01-29T16:45:07.668Z,28.00
2019-01-29T16:48:12.261Z,28.67
2019-01-29T16:51:16.477Z,29.03
2019-01-29T16:54:20.793Z,33.10
2019-01-29T16:57:31.518Z,32.30
2019-01-29T17:00:31.799Z,36.03
2019-01-29T17:03:36.153Z,37.77
2019-01-29T17:06:40.464Z,36.60
2019-01-29T17:09:44.928Z,35.77
2019-01-29T17:12:49.207Z,33.23
2019-01-29T17:15:53.782Z,35.63
2019-01-29T17:18:59.208Z,34.77
2019-01-29T17:22:03.382Z,33.83
2019-01-29T17:25:07.949Z,34.70
2019-01-29T17:28:13.038Z,32.97
2019-01-29T17:31:19.505Z,34.83
2019-01-29T17:34:26.558Z,33.93
2019-01-29T17:37:30.806Z,34.10
2019-01-29T17:40:35.253Z,34.87
2019-01-29T17:43:40.128Z,34.47
2019-01-29T17:46:44.345Z,34.67
2019-01-29T17:49:49.067Z,33.83
2019-01-29T17:52:53.350Z,31.57
2019-01-29T17:55:57.727Z,32.77
2019-01-29T17:59:02.604Z,30.57
2019-01-29T18:02:07.112Z,29.13
2019-01-29T18:05:11.631Z,28.30
2019-01-29T18:08:17.574Z,27.23
2019-01-29T18:11:22.649Z,27.13
2019-01-29T18:14:26.947Z,25.53
2019-01-29T18:17:32.066Z,24.10
2019-01-29T18:20:38.448Z,21.80
2019-01-29T18:23:42.629Z,21.70
2019-01-29T18:26:47.057Z,20.00
2019-01-29T18:29:51.697Z,20.73
2019-01-29T18:32:56.037Z,21.33
2019-01-29T18:36:00.216Z,24.20
2019-01-29T18:39:06.937Z,28.33
2019-01-29T18:42:11.440Z,30.37
2019-01-29T18:45:15.709Z,30.23
2019-01-29T18:48:19.898Z,29.80
2019-01-29T18:51:24.160Z,29.27
2019-01-29T18:54:28.389Z,29.73
2019-01-29T18:57:32.705Z,29.33
2019-01-29T19:00:36.936Z,29.27
2019-01-29T19:03:41.494Z,31.90
2019-01-29T19:06:45.693Z,33.87
2019-01-29T19:09:49.913Z,34.03
2019-01-29T19:12:55.183Z,32.27
2019-01-29T19:15:59.875Z,32.67
2019-01-29T19:19:04.028Z,33.50
2019-01-29T19:22:08.604Z,30.80
2019-01-29T19:25:13.615Z,29.97
2019-01-29T19:28:22.005Z,30.00
2019-01-29T19:31:24.343Z,28.07
2019-01-29T19:34:31.553Z,28.47
2019-01-29T19:37:35.877Z,29.20
2019-01-29T19:40:40.591Z,28.83
2019-01-29T19:43:46.430Z,28.30
2019-01-29T19:46:50.693Z,27.73
2019-01-29T19:49:54.877Z,26.37
2019-01-29T19:52:59.394Z,27.07
2019-01-29T19:56:03.608Z,24.47
2019-01-29T19:59:07.829Z,25.63
2019-01-29T20:02:12.280Z,23.97
2019-01-29T20:05:16.625Z,24.97
2019-01-29T20:08:23.268Z,23.87
2019-01-29T20:11:27.346Z,23.33
2019-01-29T20:14:31.524Z,22.40
2019-01-29T20:17:35.738Z,23.03
2019-01-29T20:20:41.098Z,23.77
2019-01-29T20:23:45.448Z,23.43
2019-01-29T20:26:49.951Z,22.43
2019-01-29T20:29:54.630Z,24.40
2019-01-29T20:32:58.802Z,23.73
2019-01-29T20:36:03.963Z,24.87
2019-01-29T20:39:10.941Z,24.47
2019-01-29T20:42:15.247Z,26.10
2019-01-29T20:45:19.537Z,26.60
2019-01-29T20:48:25.473Z,27.03
2019-01-29T20:51:29.654Z,26.50
2019-01-29T20:54:34.377Z,29.27
2019-01-29T20:57:38.574Z,29.40
2019-01-29T21:00:43.644Z,28.03
2019-01-29T21:03:48.129Z,29.93
2019-01-29T21:06:52.856Z,29.40
2019-01-29T21:09:57.292Z,29.67
2019-01-29T21:13:04.142Z,27.83
2019-01-29T21:16:09.736Z,29.80
2019-01-29T21:19:15.103Z,29.77
2019-01-29T21:22:20.290Z,30.87
2019-01-29T21:25:25.705Z,28.80
2019-01-29T21:28:29.863Z,28.73
2019-01-29T21:31:34.582Z,28.63
2019-01-29T21:34:38.791Z,30.77
2019-01-29T21:37:43.267Z,30.30
2019-01-29T21:40:47.455Z,31.90
2019-01-29T21:43:51.970Z,28.13
2019-01-29T21:46:56.073Z,30.10
2019-01-29T21:50:11.093Z,30.80
2019-01-29T21:53:06.085Z,31.37
2019-01-29T21:56:10.293Z,32.33
2019-01-29T21:59:14.446Z,31.53
2019-01-29T22:02:18.736Z,33.07
2019-01-29T22:05:22.921Z,35.03
2019-01-29T22:08:27.133Z,36.77
2019-01-29T22:11:31.247Z,37.70
2019-01-29T22:14:35.545Z,38.43
2019-01-29T22:17:39.731Z,37.23
2019-01-29T22:20:43.940Z,39.70
2019-01-29T22:23:48.108Z,39.63
2019-01-29T22:26:53.435Z,43.37
2019-01-29T22:29:57.636Z,42.33
2019-01-29T22:33:01.933Z,45.60
2019-01-29T22:36:06.095Z,44.87
2019-01-29T22:39:10.314Z,48.83
2019-01-29T22:42:14.418Z,48.17
2019-01-29T22:45:18.654Z,50.83
2019-01-29T22:48:22.747Z,49.77
2019-01-29T22:51:26.954Z,49.93
2019-01-29T22:54:31.141Z,51.63
2019-01-29T22:57:35.285Z,50.77
2019-01-29T23:01:19.499Z,51.07
2019-01-29T23:04:35.465Z,51.97
2019-01-29T23:07:41.217Z,50.70
2019-01-29T23:10:45.450Z,51.13
2019-01-29T23:13:49.553Z,55.30
2019-01-29T23:16:53.767Z,50.53
2019-01-29T23:19:57.864Z,54.37
2019-01-29T23:23:02.065Z,53.10
2019-01-29T23:26:06.247Z,55.80
2019-01-29T23:29:10.514Z,53.87
2019-01-29T23:32:14.606Z,56.93
2019-01-29T23:35:18.838Z,56.17
2019-01-29T23:38:22.926Z,56.77
2019-01-29T23:41:27.041Z,57.67
2019-01-29T23:44:31.312Z,59.27
2019-01-29T23:47:35.487Z,58.87
2019-01-29T23:50:39.575Z,58.57
2019-01-29T23:53:43.709Z,59.77
2019-01-29T23:56:47.938Z,57.77
2019-01-29T23:59:53.838Z,57.50
